TAF LFGJ
METAR LFGJ
LFGJ 082230Z AUTO 23005KT 3900 BR NSC 02/02 Q1005=
LFGJ 082200Z AUTO 24008KT 3900 BR FEW036 OVC060 03/02 Q1005=
LFGJ 082130Z AUTO 22004KT 4100 2000 BR NSC 02/02 Q1005=
LFGJ 082100Z AUTO 22004KT 4900 BR NSC 02/02 Q1004=
LFGJ 082030Z AUTO 21005KT 8000 FEW028 SCT036 BKN070 03/02 Q1004=
WC LFGJ
WS LFGJ
WV LFGJ